sensor_id;sensor_type;location;lat;lon;timestamp;P1;durP1;ratioP1;P2;durP2;ratioP2
6203;SDS011;3135;42.602;23.468;2022-07-05T00:00:49;3.20;;;1.30;;
6203;SDS011;3135;42.602;23.468;2022-07-05T00:03:14;1.85;;;1.45;;
6203;SDS011;3135;42.602;23.468;2022-07-05T00:05:40;1.52;;;1.40;;
6203;SDS011;3135;42.602;23.468;2022-07-05T00:08:06;1.33;;;1.23;;
6203;SDS011;3135;42.602;23.468;2022-07-05T00:10:32;1.83;;;1.40;;
6203;SDS011;3135;42.602;23.468;2022-07-05T00:12:58;2.30;;;1.50;;
6203;SDS011;3135;42.602;23.468;2022-07-05T00:15:24;3.95;;;1.40;;
6203;SDS011;3135;42.602;23.468;2022-07-05T00:17:50;2.30;;;1.50;;
6203;SDS011;3135;42.602;23.468;2022-07-05T00:20:15;1.70;;;1.40;;
6203;SDS011;3135;42.602;23.468;2022-07-05T00:22:41;1.40;;;1.30;;
6203;SDS011;3135;42.602;23.468;2022-07-05T00:25:07;2.75;;;1.50;;
6203;SDS011;3135;42.602;23.468;2022-07-05T00:27:32;2.43;;;1.40;;
6203;SDS011;3135;42.602;23.468;2022-07-05T00:29:58;1.30;;;1.20;;
6203;SDS011;3135;42.602;23.468;2022-07-05T00:32:23;2.20;;;1.40;;
6203;SDS011;3135;42.602;23.468;2022-07-05T00:34:49;1.85;;;1.35;;
6203;SDS011;3135;42.602;23.468;2022-07-05T00:37:14;2.63;;;1.40;;
6203;SDS011;3135;42.602;23.468;2022-07-05T00:39:40;3.40;;;1.20;;
6203;SDS011;3135;42.602;23.468;2022-07-05T00:42:05;1.40;;;1.30;;
6203;SDS011;3135;42.602;23.468;2022-07-05T00:44:32;1.90;;;1.20;;
6203;SDS011;3135;42.602;23.468;2022-07-05T00:47:00;2.20;;;1.38;;
6203;SDS011;3135;42.602;23.468;2022-07-05T00:49:28;2.20;;;1.40;;
6203;SDS011;3135;42.602;23.468;2022-07-05T00:51:54;1.50;;;1.40;;
6203;SDS011;3135;42.602;23.468;2022-07-05T00:54:19;1.60;;;1.30;;
6203;SDS011;3135;42.602;23.468;2022-07-05T00:56:45;1.50;;;1.40;;
6203;SDS011;3135;42.602;23.468;2022-07-05T00:59:11;1.90;;;1.43;;
6203;SDS011;3135;42.602;23.468;2022-07-05T01:01:36;1.40;;;1.30;;
6203;SDS011;3135;42.602;23.468;2022-07-05T01:04:02;1.42;;;1.30;;
6203;SDS011;3135;42.602;23.468;2022-07-05T01:06:27;1.67;;;1.57;;
6203;SDS011;3135;42.602;23.468;2022-07-05T01:08:53;2.00;;;1.20;;
6203;SDS011;3135;42.602;23.468;2022-07-05T01:11:18;2.38;;;1.20;;
6203;SDS011;3135;42.602;23.468;2022-07-05T01:13:44;1.63;;;1.40;;
6203;SDS011;3135;42.602;23.468;2022-07-05T01:16:09;1.90;;;1.50;;
6203;SDS011;3135;42.602;23.468;2022-07-05T01:18:35;2.00;;;1.33;;
6203;SDS011;3135;42.602;23.468;2022-07-05T01:21:02;1.40;;;1.30;;
6203;SDS011;3135;42.602;23.468;2022-07-05T01:23:28;2.13;;;1.43;;
6203;SDS011;3135;42.602;23.468;2022-07-05T01:25:54;1.60;;;1.30;;
6203;SDS011;3135;42.602;23.468;2022-07-05T01:28:23;2.30;;;1.30;;
6203;SDS011;3135;42.602;23.468;2022-07-05T01:30:49;2.95;;;1.35;;
6203;SDS011;3135;42.602;23.468;2022-07-05T01:33:15;2.65;;;1.15;;
6203;SDS011;3135;42.602;23.468;2022-07-05T01:35:41;1.10;;;1.10;;
6203;SDS011;3135;42.602;23.468;2022-07-05T01:38:06;1.73;;;1.30;;
6203;SDS011;3135;42.602;23.468;2022-07-05T01:40:32;1.77;;;1.40;;
6203;SDS011;3135;42.602;23.468;2022-07-05T01:42:57;2.73;;;1.17;;
6203;SDS011;3135;42.602;23.468;2022-07-05T01:45:23;1.40;;;1.30;;
6203;SDS011;3135;42.602;23.468;2022-07-05T01:48:06;1.55;;;1.30;;
6203;SDS011;3135;42.602;23.468;2022-07-05T01:50:33;1.75;;;1.20;;
6203;SDS011;3135;42.602;23.468;2022-07-05T01:53:03;1.10;;;1.10;;
6203;SDS011;3135;42.602;23.468;2022-07-05T01:55:30;2.65;;;1.20;;
6203;SDS011;3135;42.602;23.468;2022-07-05T01:57:55;1.92;;;1.10;;
6203;SDS011;3135;42.602;23.468;2022-07-05T02:00:22;1.90;;;1.20;;
6203;SDS011;3135;42.602;23.468;2022-07-05T02:02:47;1.30;;;1.20;;
6203;SDS011;3135;42.602;23.468;2022-07-05T02:05:14;1.48;;;1.20;;
6203;SDS011;3135;42.602;23.468;2022-07-05T02:07:46;1.17;;;1.17;;
6203;SDS011;3135;42.602;23.468;2022-07-05T02:10:12;2.22;;;1.10;;
6203;SDS011;3135;42.602;23.468;2022-07-05T02:12:38;2.20;;;1.20;;
6203;SDS011;3135;42.602;23.468;2022-07-05T02:15:03;1.10;;;1.00;;
6203;SDS011;3135;42.602;23.468;2022-07-05T02:17:29;1.45;;;1.20;;
6203;SDS011;3135;42.602;23.468;2022-07-05T02:19:55;1.20;;;1.20;;
6203;SDS011;3135;42.602;23.468;2022-07-05T02:22:20;2.30;;;1.20;;
6203;SDS011;3135;42.602;23.468;2022-07-05T02:24:46;1.85;;;1.27;;
6203;SDS011;3135;42.602;23.468;2022-07-05T02:27:11;1.80;;;1.10;;
6203;SDS011;3135;42.602;23.468;2022-07-05T02:29:37;1.43;;;1.20;;
6203;SDS011;3135;42.602;23.468;2022-07-05T02:32:02;1.23;;;1.20;;
6203;SDS011;3135;42.602;23.468;2022-07-05T02:34:28;4.00;;;1.17;;
6203;SDS011;3135;42.602;23.468;2022-07-05T02:36:53;1.40;;;1.13;;
6203;SDS011;3135;42.602;23.468;2022-07-05T02:39:18;1.30;;;1.20;;
6203;SDS011;3135;42.602;23.468;2022-07-05T02:41:44;1.50;;;1.40;;
6203;SDS011;3135;42.602;23.468;2022-07-05T02:44:09;2.40;;;1.40;;
6203;SDS011;3135;42.602;23.468;2022-07-05T02:46:35;1.30;;;1.20;;
6203;SDS011;3135;42.602;23.468;2022-07-05T02:49:00;2.20;;;1.07;;
6203;SDS011;3135;42.602;23.468;2022-07-05T02:51:26;2.60;;;1.30;;
6203;SDS011;3135;42.602;23.468;2022-07-05T02:53:51;2.00;;;1.07;;
6203;SDS011;3135;42.602;23.468;2022-07-05T02:56:17;1.90;;;1.10;;
6203;SDS011;3135;42.602;23.468;2022-07-05T02:58:42;1.30;;;1.20;;
6203;SDS011;3135;42.602;23.468;2022-07-05T03:01:08;1.10;;;1.00;;
6203;SDS011;3135;42.602;23.468;2022-07-05T03:03:33;1.23;;;1.13;;
6203;SDS011;3135;42.602;23.468;2022-07-05T03:05:58;1.63;;;1.20;;
6203;SDS011;3135;42.602;23.468;2022-07-05T03:08:25;1.70;;;1.30;;
6203;SDS011;3135;42.602;23.468;2022-07-05T03:10:50;1.53;;;1.10;;
6203;SDS011;3135;42.602;23.468;2022-07-05T03:13:15;1.50;;;1.20;;
6203;SDS011;3135;42.602;23.468;2022-07-05T03:15:41;1.30;;;1.20;;
6203;SDS011;3135;42.602;23.468;2022-07-05T03:18:07;2.05;;;1.10;;
6203;SDS011;3135;42.602;23.468;2022-07-05T03:20:33;2.50;;;1.10;;
6203;SDS011;3135;42.602;23.468;2022-07-05T03:22:58;1.67;;;1.10;;
6203;SDS011;3135;42.602;23.468;2022-07-05T03:25:24;1.73;;;1.15;;
6203;SDS011;3135;42.602;23.468;2022-07-05T03:27:50;1.80;;;1.20;;
6203;SDS011;3135;42.602;23.468;2022-07-05T03:30:15;1.38;;;1.27;;
6203;SDS011;3135;42.602;23.468;2022-07-05T03:32:41;1.70;;;1.40;;
6203;SDS011;3135;42.602;23.468;2022-07-05T03:35:06;2.10;;;1.40;;
6203;SDS011;3135;42.602;23.468;2022-07-05T03:37:32;1.40;;;1.30;;
6203;SDS011;3135;42.602;23.468;2022-07-05T03:39:57;2.40;;;1.50;;
6203;SDS011;3135;42.602;23.468;2022-07-05T03:42:23;1.50;;;1.40;;
6203;SDS011;3135;42.602;23.468;2022-07-05T03:44:48;1.40;;;1.30;;
6203;SDS011;3135;42.602;23.468;2022-07-05T03:47:14;1.70;;;1.30;;
6203;SDS011;3135;42.602;23.468;2022-07-05T03:49:40;2.50;;;1.60;;
6203;SDS011;3135;42.602;23.468;2022-07-05T03:52:05;2.80;;;1.50;;
6203;SDS011;3135;42.602;23.468;2022-07-05T03:54:30;2.22;;;1.45;;
6203;SDS011;3135;42.602;23.468;2022-07-05T03:56:56;3.00;;;1.50;;
6203;SDS011;3135;42.602;23.468;2022-07-05T03:59:21;1.60;;;1.50;;
6203;SDS011;3135;42.602;23.468;2022-07-05T04:01:47;2.40;;;1.50;;
6203;SDS011;3135;42.602;23.468;2022-07-05T04:04:12;2.30;;;1.60;;
6203;SDS011;3135;42.602;23.468;2022-07-05T04:06:38;2.07;;;1.53;;
6203;SDS011;3135;42.602;23.468;2022-07-05T04:09:03;3.23;;;1.40;;
6203;SDS011;3135;42.602;23.468;2022-07-05T04:11:29;2.17;;;1.40;;
6203;SDS011;3135;42.602;23.468;2022-07-05T04:13:54;3.25;;;1.60;;
6203;SDS011;3135;42.602;23.468;2022-07-05T04:16:20;1.70;;;1.60;;
6203;SDS011;3135;42.602;23.468;2022-07-05T04:18:45;3.70;;;1.80;;
6203;SDS011;3135;42.602;23.468;2022-07-05T04:21:11;5.60;;;1.80;;
6203;SDS011;3135;42.602;23.468;2022-07-05T04:23:36;2.85;;;1.80;;
6203;SDS011;3135;42.602;23.468;2022-07-05T04:26:02;2.37;;;1.70;;
6203;SDS011;3135;42.602;23.468;2022-07-05T04:28:28;1.83;;;1.73;;
6203;SDS011;3135;42.602;23.468;2022-07-05T04:30:57;3.30;;;1.70;;
6203;SDS011;3135;42.602;23.468;2022-07-05T04:33:22;3.55;;;1.55;;
6203;SDS011;3135;42.602;23.468;2022-07-05T04:35:48;3.92;;;1.90;;
6203;SDS011;3135;42.602;23.468;2022-07-05T04:38:13;4.73;;;1.70;;
6203;SDS011;3135;42.602;23.468;2022-07-05T04:40:39;2.83;;;1.93;;
6203;SDS011;3135;42.602;23.468;2022-07-05T04:43:06;3.80;;;1.65;;
6203;SDS011;3135;42.602;23.468;2022-07-05T04:45:32;1.83;;;1.60;;
6203;SDS011;3135;42.602;23.468;2022-07-05T04:47:57;3.30;;;1.70;;
6203;SDS011;3135;42.602;23.468;2022-07-05T04:50:23;6.27;;;2.00;;
6203;SDS011;3135;42.602;23.468;2022-07-05T04:52:49;5.17;;;1.83;;
6203;SDS011;3135;42.602;23.468;2022-07-05T04:55:14;4.05;;;1.90;;
6203;SDS011;3135;42.602;23.468;2022-07-05T04:57:40;2.80;;;1.80;;
6203;SDS011;3135;42.602;23.468;2022-07-05T05:00:07;2.50;;;1.90;;
6203;SDS011;3135;42.602;23.468;2022-07-05T05:02:34;3.37;;;2.10;;
6203;SDS011;3135;42.602;23.468;2022-07-05T05:05:00;2.00;;;1.83;;
6203;SDS011;3135;42.602;23.468;2022-07-05T05:07:25;3.00;;;1.70;;
6203;SDS011;3135;42.602;23.468;2022-07-05T05:09:52;2.90;;;2.00;;
6203;SDS011;3135;42.602;23.468;2022-07-05T05:12:17;1.90;;;1.80;;
6203;SDS011;3135;42.602;23.468;2022-07-05T05:14:43;1.87;;;1.70;;
6203;SDS011;3135;42.602;23.468;2022-07-05T05:17:08;1.63;;;1.53;;
6203;SDS011;3135;42.602;23.468;2022-07-05T05:19:34;2.00;;;1.80;;
6203;SDS011;3135;42.602;23.468;2022-07-05T05:21:59;2.90;;;2.17;;
6203;SDS011;3135;42.602;23.468;2022-07-05T05:24:24;2.47;;;1.87;;
6203;SDS011;3135;42.602;23.468;2022-07-05T05:26:50;5.50;;;2.20;;
6203;SDS011;3135;42.602;23.468;2022-07-05T05:29:16;5.85;;;2.28;;
6203;SDS011;3135;42.602;23.468;2022-07-05T05:31:42;3.90;;;2.10;;
6203;SDS011;3135;42.602;23.468;2022-07-05T05:34:08;5.40;;;2.47;;
6203;SDS011;3135;42.602;23.468;2022-07-05T05:36:33;3.20;;;2.20;;
6203;SDS011;3135;42.602;23.468;2022-07-05T05:38:58;3.83;;;2.10;;
6203;SDS011;3135;42.602;23.468;2022-07-05T05:41:24;10.00;;;3.40;;
6203;SDS011;3135;42.602;23.468;2022-07-05T05:43:49;4.90;;;2.30;;
6203;SDS011;3135;42.602;23.468;2022-07-05T05:46:15;4.30;;;2.30;;
6203;SDS011;3135;42.602;23.468;2022-07-05T05:48:40;6.33;;;2.70;;
6203;SDS011;3135;42.602;23.468;2022-07-05T05:51:06;6.30;;;2.70;;
6203;SDS011;3135;42.602;23.468;2022-07-05T05:53:31;3.70;;;2.38;;
6203;SDS011;3135;42.602;23.468;2022-07-05T05:55:57;4.10;;;2.70;;
6203;SDS011;3135;42.602;23.468;2022-07-05T05:58:23;3.47;;;2.50;;
6203;SDS011;3135;42.602;23.468;2022-07-05T06:00:49;3.65;;;2.78;;
6203;SDS011;3135;42.602;23.468;2022-07-05T06:03:24;4.43;;;2.70;;
6203;SDS011;3135;42.602;23.468;2022-07-05T06:05:51;7.15;;;2.63;;
6203;SDS011;3135;42.602;23.468;2022-07-05T06:08:17;3.87;;;2.50;;
6203;SDS011;3135;42.602;23.468;2022-07-05T06:10:44;3.00;;;2.60;;
6203;SDS011;3135;42.602;23.468;2022-07-05T06:13:10;2.95;;;2.33;;
6203;SDS011;3135;42.602;23.468;2022-07-05T06:15:38;3.80;;;2.90;;
6203;SDS011;3135;42.602;23.468;2022-07-05T06:18:05;5.05;;;2.58;;
6203;SDS011;3135;42.602;23.468;2022-07-05T06:20:33;8.07;;;2.70;;
6203;SDS011;3135;42.602;23.468;2022-07-05T06:23:00;2.88;;;2.53;;
6203;SDS011;3135;42.602;23.468;2022-07-05T06:25:26;5.32;;;2.58;;
6203;SDS011;3135;42.602;23.468;2022-07-05T06:27:54;6.07;;;2.72;;
6203;SDS011;3135;42.602;23.468;2022-07-05T06:30:23;3.57;;;2.87;;
6203;SDS011;3135;42.602;23.468;2022-07-05T06:32:50;4.47;;;2.47;;
6203;SDS011;3135;42.602;23.468;2022-07-05T06:35:16;3.50;;;2.42;;
6203;SDS011;3135;42.602;23.468;2022-07-05T06:37:43;12.88;;;3.42;;
6203;SDS011;3135;42.602;23.468;2022-07-05T06:40:13;2.90;;;2.30;;
6203;SDS011;3135;42.602;23.468;2022-07-05T06:42:51;17.85;;;3.95;;
6203;SDS011;3135;42.602;23.468;2022-07-05T06:45:18;6.03;;;2.67;;
6203;SDS011;3135;42.602;23.468;2022-07-05T06:47:44;11.97;;;2.67;;
6203;SDS011;3135;42.602;23.468;2022-07-05T06:50:10;3.20;;;2.40;;
6203;SDS011;3135;42.602;23.468;2022-07-05T06:52:36;4.23;;;2.50;;
6203;SDS011;3135;42.602;23.468;2022-07-05T06:55:02;3.00;;;2.67;;
6203;SDS011;3135;42.602;23.468;2022-07-05T06:57:28;3.83;;;2.55;;
6203;SDS011;3135;42.602;23.468;2022-07-05T06:59:54;3.88;;;2.40;;
6203;SDS011;3135;42.602;23.468;2022-07-05T07:02:20;4.22;;;2.47;;
6203;SDS011;3135;42.602;23.468;2022-07-05T07:04:46;2.90;;;2.50;;
6203;SDS011;3135;42.602;23.468;2022-07-05T07:07:12;3.83;;;2.80;;
6203;SDS011;3135;42.602;23.468;2022-07-05T07:09:58;4.03;;;2.88;;
6203;SDS011;3135;42.602;23.468;2022-07-05T07:12:24;6.30;;;2.90;;
6203;SDS011;3135;42.602;23.468;2022-07-05T07:14:49;8.75;;;2.85;;
6203;SDS011;3135;42.602;23.468;2022-07-05T07:17:15;5.50;;;3.00;;
6203;SDS011;3135;42.602;23.468;2022-07-05T07:19:40;3.38;;;2.80;;
6203;SDS011;3135;42.602;23.468;2022-07-05T07:22:06;6.87;;;3.13;;
6203;SDS011;3135;42.602;23.468;2022-07-05T07:24:31;4.70;;;2.72;;
6203;SDS011;3135;42.602;23.468;2022-07-05T07:26:56;9.67;;;3.20;;
6203;SDS011;3135;42.602;23.468;2022-07-05T07:29:28;3.92;;;2.88;;
6203;SDS011;3135;42.602;23.468;2022-07-05T07:31:55;5.97;;;3.03;;
6203;SDS011;3135;42.602;23.468;2022-07-05T07:34:21;5.78;;;2.85;;
6203;SDS011;3135;42.602;23.468;2022-07-05T07:36:47;7.15;;;2.97;;
6203;SDS011;3135;42.602;23.468;2022-07-05T07:39:14;3.88;;;2.88;;
6203;SDS011;3135;42.602;23.468;2022-07-05T07:41:39;3.13;;;2.80;;
6203;SDS011;3135;42.602;23.468;2022-07-05T07:44:05;16.42;;;10.30;;
6203;SDS011;3135;42.602;23.468;2022-07-05T07:46:30;4.90;;;3.38;;
6203;SDS011;3135;42.602;23.468;2022-07-05T07:48:56;6.83;;;3.07;;
6203;SDS011;3135;42.602;23.468;2022-07-05T07:51:22;3.90;;;3.10;;
6203;SDS011;3135;42.602;23.468;2022-07-05T07:53:48;3.88;;;3.05;;
6203;SDS011;3135;42.602;23.468;2022-07-05T07:56:13;5.88;;;3.20;;
6203;SDS011;3135;42.602;23.468;2022-07-05T07:58:38;3.40;;;2.90;;
6203;SDS011;3135;42.602;23.468;2022-07-05T08:01:04;6.67;;;3.87;;
6203;SDS011;3135;42.602;23.468;2022-07-05T08:03:35;6.72;;;3.75;;
6203;SDS011;3135;42.602;23.468;2022-07-05T08:06:05;3.97;;;3.28;;
6203;SDS011;3135;42.602;23.468;2022-07-05T08:08:30;3.83;;;3.10;;
6203;SDS011;3135;42.602;23.468;2022-07-05T08:10:56;4.40;;;3.40;;
6203;SDS011;3135;42.602;23.468;2022-07-05T08:13:21;6.67;;;3.30;;
6203;SDS011;3135;42.602;23.468;2022-07-05T08:15:47;4.80;;;3.07;;
6203;SDS011;3135;42.602;23.468;2022-07-05T08:18:12;4.23;;;3.43;;
6203;SDS011;3135;42.602;23.468;2022-07-05T08:20:56;3.60;;;2.97;;
6203;SDS011;3135;42.602;23.468;2022-07-05T08:23:40;7.37;;;3.47;;
6203;SDS011;3135;42.602;23.468;2022-07-05T08:26:05;4.53;;;3.30;;
6203;SDS011;3135;42.602;23.468;2022-07-05T08:28:31;6.73;;;3.50;;
6203;SDS011;3135;42.602;23.468;2022-07-05T08:30:56;8.07;;;3.57;;
6203;SDS011;3135;42.602;23.468;2022-07-05T08:33:22;5.33;;;3.40;;
6203;SDS011;3135;42.602;23.468;2022-07-05T08:35:49;4.07;;;3.25;;
6203;SDS011;3135;42.602;23.468;2022-07-05T08:38:14;5.60;;;3.17;;
6203;SDS011;3135;42.602;23.468;2022-07-05T08:40:41;7.40;;;3.70;;
6203;SDS011;3135;42.602;23.468;2022-07-05T08:43:10;6.10;;;3.60;;
6203;SDS011;3135;42.602;23.468;2022-07-05T08:45:40;3.85;;;3.50;;
6203;SDS011;3135;42.602;23.468;2022-07-05T08:48:08;6.67;;;3.40;;
6203;SDS011;3135;42.602;23.468;2022-07-05T08:50:35;4.88;;;3.75;;
6203;SDS011;3135;42.602;23.468;2022-07-05T08:53:12;5.30;;;3.50;;
6203;SDS011;3135;42.602;23.468;2022-07-05T08:55:39;5.10;;;3.75;;
6203;SDS011;3135;42.602;23.468;2022-07-05T08:58:05;5.07;;;3.70;;
6203;SDS011;3135;42.602;23.468;2022-07-05T09:00:31;4.63;;;3.60;;
6203;SDS011;3135;42.602;23.468;2022-07-05T09:02:57;7.40;;;3.57;;
6203;SDS011;3135;42.602;23.468;2022-07-05T09:05:23;4.03;;;3.63;;
6203;SDS011;3135;42.602;23.468;2022-07-05T09:08:00;5.20;;;3.72;;
6203;SDS011;3135;42.602;23.468;2022-07-05T09:10:27;7.27;;;3.13;;
6203;SDS011;3135;42.602;23.468;2022-07-05T09:12:54;6.40;;;3.70;;
6203;SDS011;3135;42.602;23.468;2022-07-05T09:15:21;5.95;;;3.33;;
6203;SDS011;3135;42.602;23.468;2022-07-05T09:17:47;8.35;;;5.30;;
6203;SDS011;3135;42.602;23.468;2022-07-05T09:20:13;4.07;;;3.58;;
6203;SDS011;3135;42.602;23.468;2022-07-05T09:25:28;3.60;;;3.30;;
6203;SDS011;3135;42.602;23.468;2022-07-05T09:30:33;3.90;;;3.50;;
6203;SDS011;3135;42.602;23.468;2022-07-05T09:33:04;4.03;;;3.72;;
6203;SDS011;3135;42.602;23.468;2022-07-05T09:35:38;5.00;;;3.47;;
6203;SDS011;3135;42.602;23.468;2022-07-05T09:38:05;6.22;;;3.40;;
6203;SDS011;3135;42.602;23.468;2022-07-05T09:40:45;5.80;;;3.40;;
6203;SDS011;3135;42.602;23.468;2022-07-05T09:43:24;4.90;;;3.60;;
6203;SDS011;3135;42.602;23.468;2022-07-05T09:48:19;5.00;;;3.70;;
6203;SDS011;3135;42.602;23.468;2022-07-05T09:50:45;3.80;;;3.50;;
6203;SDS011;3135;42.602;23.468;2022-07-05T09:53:11;4.28;;;3.88;;
6203;SDS011;3135;42.602;23.468;2022-07-05T09:55:39;3.85;;;3.38;;
6203;SDS011;3135;42.602;23.468;2022-07-05T09:58:05;3.92;;;3.63;;
6203;SDS011;3135;42.602;23.468;2022-07-05T10:00:31;9.73;;;4.28;;
6203;SDS011;3135;42.602;23.468;2022-07-05T10:02:57;3.90;;;3.60;;
6203;SDS011;3135;42.602;23.468;2022-07-05T10:05:30;4.88;;;3.80;;
6203;SDS011;3135;42.602;23.468;2022-07-05T10:08:00;5.38;;;3.80;;
6203;SDS011;3135;42.602;23.468;2022-07-05T10:10:28;5.65;;;3.80;;
6203;SDS011;3135;42.602;23.468;2022-07-05T10:13:01;4.90;;;4.40;;
6203;SDS011;3135;42.602;23.468;2022-07-05T10:15:33;4.53;;;4.07;;
6203;SDS011;3135;42.602;23.468;2022-07-05T10:20:40;4.88;;;3.75;;
6203;SDS011;3135;42.602;23.468;2022-07-05T10:23:08;4.90;;;4.30;;
6203;SDS011;3135;42.602;23.468;2022-07-05T10:25:38;6.07;;;4.10;;
6203;SDS011;3135;42.602;23.468;2022-07-05T10:28:05;4.35;;;3.72;;
6203;SDS011;3135;42.602;23.468;2022-07-05T10:30:32;4.22;;;3.92;;
6203;SDS011;3135;42.602;23.468;2022-07-05T10:33:01;6.18;;;4.20;;
6203;SDS011;3135;42.602;23.468;2022-07-05T10:35:28;4.18;;;3.88;;
6203;SDS011;3135;42.602;23.468;2022-07-05T10:37:54;4.85;;;4.40;;
6203;SDS011;3135;42.602;23.468;2022-07-05T10:40:20;4.60;;;4.20;;
6203;SDS011;3135;42.602;23.468;2022-07-05T10:42:47;4.68;;;4.20;;
6203;SDS011;3135;42.602;23.468;2022-07-05T10:48:11;5.03;;;4.63;;
6203;SDS011;3135;42.602;23.468;2022-07-05T10:56:14;5.85;;;4.82;;
6203;SDS011;3135;42.602;23.468;2022-07-05T10:58:40;5.90;;;4.60;;
6203;SDS011;3135;42.602;23.468;2022-07-05T11:03:41;6.28;;;4.45;;
6203;SDS011;3135;42.602;23.468;2022-07-05T11:11:33;4.85;;;4.45;;
6203;SDS011;3135;42.602;23.468;2022-07-05T11:22:26;5.38;;;4.45;;
6203;SDS011;3135;42.602;23.468;2022-07-05T11:24:52;6.27;;;4.53;;
6203;SDS011;3135;42.602;23.468;2022-07-05T11:27:18;5.20;;;4.13;;
6203;SDS011;3135;42.602;23.468;2022-07-05T11:29:50;4.70;;;4.30;;
6203;SDS011;3135;42.602;23.468;2022-07-05T11:34:56;4.53;;;4.13;;
6203;SDS011;3135;42.602;23.468;2022-07-05T11:37:42;4.68;;;4.28;;
6203;SDS011;3135;42.602;23.468;2022-07-05T11:40:33;6.65;;;3.97;;
6203;SDS011;3135;42.602;23.468;2022-07-05T11:43:05;5.45;;;4.20;;
6203;SDS011;3135;42.602;23.468;2022-07-05T11:45:33;6.03;;;4.00;;
6203;SDS011;3135;42.602;23.468;2022-07-05T11:47:59;4.28;;;3.85;;
6203;SDS011;3135;42.602;23.468;2022-07-05T11:50:32;5.55;;;4.03;;
6203;SDS011;3135;42.602;23.468;2022-07-05T11:52:59;4.78;;;3.90;;
6203;SDS011;3135;42.602;23.468;2022-07-05T11:55:26;4.43;;;4.03;;
6203;SDS011;3135;42.602;23.468;2022-07-05T11:57:55;4.63;;;4.22;;
6203;SDS011;3135;42.602;23.468;2022-07-05T12:00:29;4.35;;;4.05;;
6203;SDS011;3135;42.602;23.468;2022-07-05T12:02:56;4.43;;;4.13;;
6203;SDS011;3135;42.602;23.468;2022-07-05T12:05:22;4.73;;;4.33;;
6203;SDS011;3135;42.602;23.468;2022-07-05T12:07:51;5.90;;;4.10;;
6203;SDS011;3135;42.602;23.468;2022-07-05T12:10:17;5.75;;;3.83;;
6203;SDS011;3135;42.602;23.468;2022-07-05T12:13:03;4.27;;;3.97;;
6203;SDS011;3135;42.602;23.468;2022-07-05T12:15:30;4.55;;;4.15;;
6203;SDS011;3135;42.602;23.468;2022-07-05T12:17:55;5.55;;;3.95;;
6203;SDS011;3135;42.602;23.468;2022-07-05T12:20:22;4.70;;;4.20;;
6203;SDS011;3135;42.602;23.468;2022-07-05T12:22:49;4.88;;;4.20;;
6203;SDS011;3135;42.602;23.468;2022-07-05T12:25:16;4.80;;;4.30;;
6203;SDS011;3135;42.602;23.468;2022-07-05T12:27:44;5.47;;;4.30;;
6203;SDS011;3135;42.602;23.468;2022-07-05T12:30:11;4.82;;;4.35;;
6203;SDS011;3135;42.602;23.468;2022-07-05T12:32:56;5.70;;;4.45;;
6203;SDS011;3135;42.602;23.468;2022-07-05T12:35:33;11.60;;;8.20;;
6203;SDS011;3135;42.602;23.468;2022-07-05T12:38:02;10.13;;;5.05;;
6203;SDS011;3135;42.602;23.468;2022-07-05T12:40:29;6.67;;;4.67;;
6203;SDS011;3135;42.602;23.468;2022-07-05T12:45:27;6.45;;;4.38;;
6203;SDS011;3135;42.602;23.468;2022-07-05T12:47:55;9.47;;;5.33;;
6203;SDS011;3135;42.602;23.468;2022-07-05T12:50:25;5.20;;;4.63;;
6203;SDS011;3135;42.602;23.468;2022-07-05T12:55:47;7.63;;;5.85;;
6203;SDS011;3135;42.602;23.468;2022-07-05T12:58:31;5.55;;;4.88;;
6203;SDS011;3135;42.602;23.468;2022-07-05T13:00:57;6.43;;;4.30;;
6203;SDS011;3135;42.602;23.468;2022-07-05T13:03:22;5.57;;;4.70;;
6203;SDS011;3135;42.602;23.468;2022-07-05T13:06:01;4.70;;;4.30;;
6203;SDS011;3135;42.602;23.468;2022-07-05T13:08:27;5.55;;;4.45;;
6203;SDS011;3135;42.602;23.468;2022-07-05T13:10:54;7.82;;;4.43;;
6203;SDS011;3135;42.602;23.468;2022-07-05T13:13:19;6.30;;;4.90;;
6203;SDS011;3135;42.602;23.468;2022-07-05T13:15:45;5.30;;;4.35;;
6203;SDS011;3135;42.602;23.468;2022-07-05T13:18:11;5.10;;;4.67;;
6203;SDS011;3135;42.602;23.468;2022-07-05T13:20:36;5.10;;;4.60;;
6203;SDS011;3135;42.602;23.468;2022-07-05T13:23:02;6.17;;;4.70;;
6203;SDS011;3135;42.602;23.468;2022-07-05T13:25:27;5.93;;;4.60;;
6203;SDS011;3135;42.602;23.468;2022-07-05T13:27:53;5.00;;;4.60;;
6203;SDS011;3135;42.602;23.468;2022-07-05T13:30:18;7.85;;;6.65;;
6203;SDS011;3135;42.602;23.468;2022-07-05T13:32:44;6.10;;;5.50;;
6203;SDS011;3135;42.602;23.468;2022-07-05T13:35:09;6.07;;;5.03;;
6203;SDS011;3135;42.602;23.468;2022-07-05T13:37:36;13.02;;;10.35;;
6203;SDS011;3135;42.602;23.468;2022-07-05T13:40:01;8.90;;;7.70;;
6203;SDS011;3135;42.602;23.468;2022-07-05T13:42:27;5.10;;;4.70;;
6203;SDS011;3135;42.602;23.468;2022-07-05T13:44:53;5.18;;;4.65;;
6203;SDS011;3135;42.602;23.468;2022-07-05T13:47:18;5.17;;;4.67;;
6203;SDS011;3135;42.602;23.468;2022-07-05T13:49:44;6.13;;;4.40;;
6203;SDS011;3135;42.602;23.468;2022-07-05T13:52:09;4.70;;;4.23;;
6203;SDS011;3135;42.602;23.468;2022-07-05T13:54:35;4.83;;;4.43;;
6203;SDS011;3135;42.602;23.468;2022-07-05T13:57:00;4.85;;;4.40;;
6203;SDS011;3135;42.602;23.468;2022-07-05T13:59:26;5.70;;;4.77;;
6203;SDS011;3135;42.602;23.468;2022-07-05T14:01:51;5.00;;;4.50;;
6203;SDS011;3135;42.602;23.468;2022-07-05T14:04:16;5.53;;;4.60;;
6203;SDS011;3135;42.602;23.468;2022-07-05T14:06:42;15.60;;;11.50;;
6203;SDS011;3135;42.602;23.468;2022-07-05T14:09:07;7.77;;;6.97;;
6203;SDS011;3135;42.602;23.468;2022-07-05T14:11:33;5.03;;;4.53;;
6203;SDS011;3135;42.602;23.468;2022-07-05T14:13:59;5.50;;;5.00;;
6203;SDS011;3135;42.602;23.468;2022-07-05T14:16:24;5.03;;;4.53;;
6203;SDS011;3135;42.602;23.468;2022-07-05T14:18:50;5.10;;;4.60;;
6203;SDS011;3135;42.602;23.468;2022-07-05T14:21:17;5.30;;;4.47;;
6203;SDS011;3135;42.602;23.468;2022-07-05T14:23:46;5.47;;;4.50;;
6203;SDS011;3135;42.602;23.468;2022-07-05T14:26:12;5.05;;;4.57;;
6203;SDS011;3135;42.602;23.468;2022-07-05T14:28:38;4.35;;;3.95;;
6203;SDS011;3135;42.602;23.468;2022-07-05T14:31:03;5.63;;;4.57;;
6203;SDS011;3135;42.602;23.468;2022-07-05T14:33:29;7.22;;;4.40;;
6203;SDS011;3135;42.602;23.468;2022-07-05T14:35:54;5.43;;;4.30;;
6203;SDS011;3135;42.602;23.468;2022-07-05T14:38:20;5.20;;;4.50;;
6203;SDS011;3135;42.602;23.468;2022-07-05T14:40:45;4.43;;;4.10;;
6203;SDS011;3135;42.602;23.468;2022-07-05T14:43:11;4.90;;;4.23;;
6203;SDS011;3135;42.602;23.468;2022-07-05T14:45:36;4.40;;;4.10;;
6203;SDS011;3135;42.602;23.468;2022-07-05T14:48:02;5.13;;;4.10;;
6203;SDS011;3135;42.602;23.468;2022-07-05T14:50:28;5.20;;;4.27;;
6203;SDS011;3135;42.602;23.468;2022-07-05T14:52:53;5.43;;;4.13;;
6203;SDS011;3135;42.602;23.468;2022-07-05T14:55:19;5.37;;;4.10;;
6203;SDS011;3135;42.602;23.468;2022-07-05T14:57:44;4.70;;;4.20;;
6203;SDS011;3135;42.602;23.468;2022-07-05T15:00:11;4.60;;;4.17;;
6203;SDS011;3135;42.602;23.468;2022-07-05T15:02:38;4.35;;;3.97;;
6203;SDS011;3135;42.602;23.468;2022-07-05T15:05:04;6.03;;;4.13;;
6203;SDS011;3135;42.602;23.468;2022-07-05T15:07:31;5.10;;;4.20;;
6203;SDS011;3135;42.602;23.468;2022-07-05T15:09:57;4.90;;;4.47;;
6203;SDS011;3135;42.602;23.468;2022-07-05T15:12:22;4.33;;;3.93;;
6203;SDS011;3135;42.602;23.468;2022-07-05T15:14:48;4.80;;;4.40;;
6203;SDS011;3135;42.602;23.468;2022-07-05T15:17:13;4.53;;;4.13;;
6203;SDS011;3135;42.602;23.468;2022-07-05T15:19:39;4.82;;;4.32;;
6203;SDS011;3135;42.602;23.468;2022-07-05T15:22:05;4.87;;;4.13;;
6203;SDS011;3135;42.602;23.468;2022-07-05T15:24:31;5.97;;;4.47;;
6203;SDS011;3135;42.602;23.468;2022-07-05T15:26:57;4.85;;;4.38;;
6203;SDS011;3135;42.602;23.468;2022-07-05T15:29:23;5.03;;;4.00;;
6203;SDS011;3135;42.602;23.468;2022-07-05T15:31:50;5.00;;;4.20;;
6203;SDS011;3135;42.602;23.468;2022-07-05T15:34:16;4.50;;;4.10;;
6203;SDS011;3135;42.602;23.468;2022-07-05T15:36:41;5.38;;;4.40;;
6203;SDS011;3135;42.602;23.468;2022-07-05T15:39:07;4.30;;;4.00;;
6203;SDS011;3135;42.602;23.468;2022-07-05T15:41:33;5.35;;;4.30;;